createdAt,value
2023-01-17T00:00:44.627Z,23.60
2023-01-17T00:06:24.167Z,28.60
2023-01-17T00:11:31.356Z,29.60
2023-01-17T00:16:38.548Z,36.20
2023-01-17T00:22:03.493Z,28.20
2023-01-17T00:27:12.279Z,33.70
2023-01-17T00:32:18.280Z,26.60
2023-01-17T00:37:24.299Z,28.00
2023-01-17T00:42:30.353Z,35.80
2023-01-17T00:47:56.900Z,33.20
2023-01-17T00:53:25.324Z,31.10
2023-01-17T00:58:50.161Z,28.50
2023-01-17T01:04:14.931Z,31.00
2023-01-17T01:09:39.689Z,29.00
2023-01-17T01:15:04.306Z,30.70
2023-01-17T01:20:30.545Z,28.90
2023-01-17T01:25:55.947Z,31.70
2023-01-17T01:31:21.873Z,30.00
2023-01-17T01:36:29.086Z,30.30
2023-01-17T01:41:36.393Z,30.10
2023-01-17T01:46:44.276Z,26.90
2023-01-17T01:51:55.619Z,29.30
2023-01-17T01:57:06.399Z,29.40
2023-01-17T02:02:16.960Z,23.40
2023-01-17T02:07:27.978Z,28.10
2023-01-17T02:12:35.936Z,27.10
2023-01-17T02:17:55.805Z,28.20
2023-01-17T02:23:37.470Z,22.90
2023-01-17T02:29:01.662Z,28.90
2023-01-17T02:34:16.272Z,30.80
2023-01-17T02:39:29.684Z,31.80
2023-01-17T02:44:43.106Z,36.10
2023-01-17T02:49:51.370Z,31.60
2023-01-17T02:55:10.923Z,35.50
2023-01-17T03:00:28.035Z,33.80
2023-01-17T03:05:42.399Z,27.20
2023-01-17T03:10:49.559Z,35.80
2023-01-17T03:15:56.686Z,35.00
2023-01-17T03:21:03.888Z,33.00
2023-01-17T03:26:11.759Z,31.80
2023-01-17T03:31:20.126Z,33.50
2023-01-17T03:36:27.325Z,35.40
2023-01-17T03:41:34.411Z,36.00
2023-01-17T03:46:41.609Z,33.60
2023-01-17T03:51:48.716Z,34.60
2023-01-17T03:56:55.762Z,34.30
2023-01-17T04:02:03.089Z,37.90
2023-01-17T04:07:10.361Z,35.40
2023-01-17T04:12:17.845Z,33.90
2023-01-17T04:17:25.000Z,31.10
2023-01-17T04:22:32.579Z,29.70
2023-01-17T04:27:39.705Z,37.70
2023-01-17T04:32:47.036Z,42.60
2023-01-17T04:37:54.204Z,42.90
2023-01-17T04:43:01.543Z,36.50
2023-01-17T04:48:10.344Z,42.40
2023-01-17T04:53:17.601Z,40.20
2023-01-17T04:58:25.141Z,39.20
2023-01-17T05:03:32.503Z,46.50
2023-01-17T05:08:39.706Z,53.10
2023-01-17T05:13:48.743Z,40.30
2023-01-17T05:18:56.427Z,46.30
2023-01-17T05:24:03.538Z,37.40
2023-01-17T05:29:10.833Z,44.00
2023-01-17T05:34:17.960Z,43.80
2023-01-17T05:39:26.564Z,39.40
2023-01-17T05:44:33.758Z,42.90
2023-01-17T05:49:40.787Z,35.90
2023-01-17T05:54:48.151Z,36.10
2023-01-17T05:59:55.317Z,36.90
2023-01-17T06:05:03.547Z,48.10
2023-01-17T06:10:12.893Z,49.80
2023-01-17T06:15:20.701Z,62.60
2023-01-17T06:20:28.794Z,61.30
2023-01-17T06:25:40.719Z,45.30
2023-01-17T06:30:48.423Z,41.10
2023-01-17T06:35:56.107Z,43.10
2023-01-17T06:41:06.877Z,44.20
2023-01-17T06:46:14.010Z,41.70
2023-01-17T06:51:21.208Z,46.00
2023-01-17T06:56:31.197Z,48.40
2023-01-17T07:01:38.453Z,38.10
2023-01-17T07:06:45.814Z,38.90
2023-01-17T07:11:59.703Z,42.00
2023-01-17T07:17:06.904Z,48.90
2023-01-17T07:22:14.238Z,51.30
2023-01-17T07:27:21.360Z,45.10
2023-01-17T07:32:28.886Z,48.20
2023-01-17T07:37:36.067Z,48.50
2023-01-17T07:42:43.228Z,47.60
2023-01-17T07:47:50.854Z,55.10
2023-01-17T07:52:57.992Z,47.00
2023-01-17T07:58:05.191Z,46.00
2023-01-17T08:03:16.078Z,58.30
2023-01-17T08:08:23.505Z,44.00
2023-01-17T08:13:30.938Z,44.60
2023-01-17T08:18:38.485Z,50.00
2023-01-17T08:23:50.545Z,41.70
2023-01-17T08:29:02.215Z,43.30
2023-01-17T08:34:09.509Z,40.50
2023-01-17T08:39:16.977Z,41.70
2023-01-17T08:44:24.803Z,45.40
2023-01-17T08:49:31.991Z,42.20
2023-01-17T08:54:39.370Z,41.80
2023-01-17T08:59:46.931Z,42.70
2023-01-17T09:04:54.369Z,42.90
2023-01-17T09:10:01.567Z,37.60
2023-01-17T09:15:10.463Z,34.80
2023-01-17T09:20:18.087Z,32.10
2023-01-17T09:25:25.285Z,32.60
2023-01-17T09:30:32.528Z,32.10
2023-01-17T09:35:39.683Z,27.70
2023-01-17T09:40:49.344Z,25.80
2023-01-17T09:45:56.670Z,28.20
2023-01-17T09:51:09.758Z,26.20
2023-01-17T09:56:21.098Z,30.50
2023-01-17T10:01:37.805Z,23.20
2023-01-17T10:06:58.365Z,28.40
2023-01-17T10:12:27.022Z,24.30
2023-01-17T10:17:45.018Z,25.10
2023-01-17T10:23:12.706Z,24.60
2023-01-17T10:28:24.783Z,25.30
2023-01-17T10:33:37.367Z,22.90
2023-01-17T10:38:48.603Z,23.60
2023-01-17T10:44:06.016Z,19.10
2023-01-17T10:49:19.308Z,16.70
2023-01-17T10:54:43.999Z,16.70
2023-01-17T10:59:51.322Z,16.90
2023-01-17T11:05:04.443Z,17.00
2023-01-17T11:10:38.113Z,16.00
2023-01-17T11:15:53.265Z,16.80
2023-01-17T11:21:14.235Z,19.00
2023-01-17T11:26:28.970Z,18.40
2023-01-17T11:31:37.267Z,13.60
2023-01-17T11:36:44.832Z,14.90
2023-01-17T11:41:53.510Z,12.60
2023-01-17T11:47:20.100Z,12.40
2023-01-17T11:52:34.475Z,14.20
2023-01-17T11:57:41.891Z,7.70
2023-01-17T12:03:14.094Z,8.70
2023-01-17T12:08:33.640Z,11.70
2023-01-17T12:14:03.459Z,9.40
2023-01-17T12:19:32.441Z,6.10
2023-01-17T12:25:00.102Z,6.30
2023-01-17T12:30:35.595Z,7.60
2023-01-17T12:35:50.846Z,15.70
2023-01-17T12:41:02.988Z,8.50
2023-01-17T12:46:21.037Z,7.90
2023-01-17T12:56:42.533Z,6.60
2023-01-17T13:01:57.978Z,11.10
2023-01-17T13:07:14.690Z,9.20
2023-01-17T13:12:23.917Z,8.90
2023-01-17T13:17:40.405Z,11.50
2023-01-17T13:22:48.808Z,5.40
2023-01-17T13:28:10.849Z,6.30
2023-01-17T13:33:29.836Z,10.00
2023-01-17T13:39:04.859Z,12.20
2023-01-17T13:44:23.094Z,4.20
2023-01-17T13:54:49.712Z,6.50
2023-01-17T13:59:58.345Z,5.50
2023-01-17T14:05:15.409Z,8.20
2023-01-17T14:10:38.454Z,11.50
2023-01-17T14:15:53.326Z,6.40
2023-01-17T14:21:21.820Z,4.80
2023-01-17T14:32:03.650Z,9.40
2023-01-17T14:37:19.752Z,13.70
2023-01-17T14:42:29.687Z,9.00
2023-01-17T14:47:39.498Z,11.80
2023-01-17T14:52:46.915Z,18.60
2023-01-17T14:57:57.983Z,13.10
2023-01-17T15:03:07.265Z,13.30
2023-01-17T15:08:18.422Z,11.30
2023-01-17T15:13:44.385Z,11.80
2023-01-17T15:18:53.193Z,13.30
2023-01-17T15:24:03.557Z,8.80
2023-01-17T15:29:19.896Z,11.50
2023-01-17T15:34:34.061Z,12.10
2023-01-17T15:39:43.180Z,9.20
2023-01-17T15:44:55.553Z,11.20
2023-01-17T15:50:18.071Z,8.10
2023-01-17T15:55:48.100Z,11.10
2023-01-17T16:00:56.100Z,12.00
2023-01-17T16:06:38.334Z,10.70
2023-01-17T16:12:28.899Z,16.10
2023-01-17T16:17:40.332Z,10.10
2023-01-17T16:23:52.251Z,12.10
2023-01-17T16:29:04.871Z,9.30
2023-01-17T16:34:14.245Z,12.10
2023-01-17T16:39:21.688Z,14.20
2023-01-17T16:44:29.683Z,16.90
2023-01-17T16:49:37.778Z,15.50
2023-01-17T16:54:44.874Z,14.00
2023-01-17T16:59:53.278Z,14.60
2023-01-17T17:05:00.676Z,14.00
2023-01-17T17:10:09.125Z,11.80
2023-01-17T17:15:16.705Z,8.60
2023-01-17T17:20:26.686Z,10.20
2023-01-17T17:25:37.202Z,12.00
2023-01-17T17:30:44.926Z,9.50
2023-01-17T17:35:52.022Z,9.10
2023-01-17T17:41:04.607Z,10.30
2023-01-17T17:46:13.027Z,12.30
2023-01-17T17:51:28.496Z,9.00
2023-01-17T17:56:36.986Z,8.10
2023-01-17T18:01:44.358Z,10.40
2023-01-17T18:06:51.714Z,11.60
2023-01-17T18:12:01.209Z,11.50
2023-01-17T18:17:08.451Z,12.40
2023-01-17T18:22:15.551Z,20.10
2023-01-17T18:27:22.711Z,24.80
2023-01-17T18:32:30.105Z,21.40
2023-01-17T18:37:37.423Z,22.30
2023-01-17T18:42:44.535Z,21.30
2023-01-17T18:47:51.958Z,19.90
2023-01-17T18:52:59.444Z,20.40
2023-01-17T18:58:06.959Z,15.30
2023-01-17T19:03:14.135Z,17.30
2023-01-17T19:08:21.269Z,21.40
2023-01-17T19:13:28.543Z,17.40
2023-01-17T19:18:36.366Z,19.80
2023-01-17T19:23:44.603Z,26.50
2023-01-17T19:28:51.999Z,24.50
2023-01-17T19:34:01.203Z,18.40
2023-01-17T19:39:10.640Z,19.30
2023-01-17T19:44:17.832Z,22.00
2023-01-17T19:49:25.125Z,20.90
2023-01-17T19:54:32.338Z,31.50
2023-01-17T19:59:39.582Z,23.90
2023-01-17T20:04:47.270Z,21.80
2023-01-17T20:09:54.655Z,41.00
2023-01-17T20:15:01.804Z,46.70
2023-01-17T20:20:12.983Z,31.60
2023-01-17T20:25:20.451Z,40.40
2023-01-17T20:30:30.643Z,36.30
2023-01-17T20:35:37.769Z,40.10
2023-01-17T20:40:44.905Z,38.10
2023-01-17T20:45:58.397Z,45.00
2023-01-17T20:51:11.339Z,44.90
2023-01-17T20:56:19.090Z,58.50
2023-01-17T21:01:26.594Z,43.80
2023-01-17T21:06:33.864Z,47.70
2023-01-17T21:11:41.323Z,81.00
2023-01-17T21:16:50.475Z,68.00
2023-01-17T21:21:57.792Z,36.00
2023-01-17T21:27:04.983Z,58.80
2023-01-17T21:32:12.162Z,77.30
2023-01-17T21:37:19.412Z,41.40
2023-01-17T21:42:26.573Z,39.90
2023-01-17T21:47:33.811Z,47.00
2023-01-17T21:52:41.104Z,67.30
2023-01-17T21:58:05.815Z,64.70
2023-01-17T22:03:13.000Z,39.10
2023-01-17T22:08:20.685Z,32.30
2023-01-17T22:13:31.562Z,31.90
2023-01-17T22:18:41.045Z,33.50
2023-01-17T22:23:51.820Z,45.30
2023-01-17T22:29:00.887Z,40.60
2023-01-17T22:34:08.123Z,68.40
2023-01-17T22:39:15.539Z,66.60
2023-01-17T22:44:22.698Z,68.30
2023-01-17T22:49:30.101Z,77.20
2023-01-17T22:54:37.211Z,46.50
2023-01-17T22:59:44.354Z,117.60
2023-01-17T23:04:51.463Z,167.70
2023-01-17T23:09:58.813Z,103.50
2023-01-17T23:15:24.266Z,79.40
2023-01-17T23:20:31.358Z,61.70
2023-01-17T23:25:38.399Z,39.60
2023-01-17T23:30:47.907Z,46.70
2023-01-17T23:35:56.296Z,61.50
2023-01-17T23:41:22.694Z,51.70
2023-01-17T23:46:30.483Z,71.10
2023-01-17T23:56:43.613Z,48.60
